logo
Rechercher aéroport 
image banner adimage banner adimage banner ad
image banner ad

YKPR - Kalpowar Airport

Situé à Kalpower, Australia

ICAO - YKPR, IATA - KPP

Données fournies par Airmate  

Information générale

Coordonnées: S14°53'23" E144°13'10"
Élévation : 90 feet MSL.
Variation magnétique : 6° East
Voir autres Aéroports à Queensland

Données opérationnelles

Special qualification required
Heure actuelle UTC:
Heure actuelle locale:
Météo à : - ( 0 km )
METAR: KATL 111752Z 31008KT 10SM CLR 09/M03 A3018 RMK AO2 SLP226 T00891028 10089 20006 58004
TAF: KATL 111726Z 1118/1224 32010KT P6SM SKC FM120000 34006KT P6SM SKC FM121100 05005KT P6SM SKC
Voir NOTAMs / SUP AIP / TFR affectant cet aéroport [VIEW]
Fréquences de communication: [VIEW]

Pistes:

Identifiant RWYQFULongueur (ft)Largeur (ft)SurfaceLDA (ft)
11119°318357DIRT
29299°318357DIRT

Coordonnées de l'aéroport

Adresse: Kalpower Australia

Vue satellite de YKPR